createdAt,value
2018-01-04T00:02:09.072Z,1.70
2018-01-04T00:04:37.431Z,1.93
2018-01-04T00:07:05.134Z,2.50
2018-01-04T00:09:32.722Z,2.20
2018-01-04T00:12:00.303Z,2.57
2018-01-04T00:14:27.992Z,2.93
2018-01-04T00:16:56.385Z,2.07
2018-01-04T00:19:24.008Z,2.73
2018-01-04T00:21:51.626Z,2.47
2018-01-04T00:24:19.255Z,3.20
2018-01-04T00:26:46.849Z,3.80
2018-01-04T00:29:14.489Z,2.50
2018-01-04T00:31:42.165Z,2.10
2018-01-04T00:34:10.040Z,2.13
2018-01-04T00:36:39.539Z,2.00
2018-01-04T00:39:07.102Z,2.40
2018-01-04T00:41:35.534Z,2.50
2018-01-04T00:44:03.101Z,2.10
2018-01-04T00:46:31.493Z,2.20
2018-01-04T00:48:59.855Z,3.10
2018-01-04T00:51:28.196Z,2.17
2018-01-04T00:53:55.784Z,3.67
2018-01-04T00:56:23.381Z,2.10
2018-01-04T00:58:50.972Z,2.30
2018-01-04T01:01:18.548Z,1.83
2018-01-04T01:03:47.056Z,2.43
2018-01-04T01:06:14.690Z,2.10
2018-01-04T01:08:42.297Z,3.53
2018-01-04T01:11:10.780Z,3.07
2018-01-04T01:13:39.157Z,2.37
2018-01-04T01:16:07.484Z,2.23
2018-01-04T01:18:35.641Z,2.17
2018-01-04T01:21:03.235Z,2.40
2018-01-04T01:23:31.102Z,2.17
2018-01-04T01:25:58.676Z,2.83
2018-01-04T01:28:26.237Z,4.83
2018-01-04T01:30:53.902Z,2.30
2018-01-04T01:33:21.486Z,2.97
2018-01-04T01:35:49.120Z,2.30
2018-01-04T01:38:16.738Z,2.53
2018-01-04T01:40:44.335Z,2.17
2018-01-04T01:43:12.740Z,3.33
2018-01-04T01:45:40.354Z,2.43
2018-01-04T01:48:07.939Z,2.73
2018-01-04T01:50:35.549Z,2.40
2018-01-04T01:53:03.135Z,2.23
2018-01-04T01:55:30.743Z,3.13
2018-01-04T01:57:58.380Z,2.67
2018-01-04T02:00:25.993Z,2.20
2018-01-04T02:02:53.621Z,2.10
2018-01-04T02:05:22.019Z,3.10
2018-01-04T02:07:49.668Z,2.27
2018-01-04T02:10:18.014Z,2.27
2018-01-04T02:12:45.576Z,3.53
2018-01-04T02:15:13.163Z,2.60
2018-01-04T02:17:41.487Z,3.17
2018-01-04T02:20:20.952Z,2.80
2018-01-04T02:25:51.780Z,2.37
2018-01-04T02:28:31.215Z,2.67
2018-01-04T02:31:10.627Z,2.83
2018-01-04T02:33:50.154Z,4.83
2018-01-04T02:36:30.209Z,2.97
2018-01-04T02:39:09.738Z,3.20
2018-01-04T02:41:49.163Z,3.27
2018-01-04T02:44:28.978Z,2.83
2018-01-04T02:46:56.677Z,3.10
2018-01-04T02:49:24.236Z,3.27
2018-01-04T02:51:51.862Z,2.40
2018-01-04T02:54:19.467Z,2.20
2018-01-04T02:56:48.701Z,2.20
2018-01-04T02:59:16.540Z,2.47
2018-01-04T03:01:44.903Z,2.30
2018-01-04T03:04:13.264Z,2.50
2018-01-04T03:06:40.855Z,3.03
2018-01-04T03:09:08.433Z,1.97
2018-01-04T03:11:36.053Z,2.67
2018-01-04T03:14:04.117Z,2.00
2018-01-04T03:16:31.761Z,3.33
2018-01-04T03:19:00.055Z,2.30
2018-01-04T03:21:27.651Z,2.10
2018-01-04T03:23:55.974Z,2.17
2018-01-04T03:26:29.212Z,1.87
2018-01-04T03:29:02.590Z,2.87
2018-01-04T03:31:36.567Z,3.23
2018-01-04T03:34:09.851Z,2.10
2018-01-04T03:36:43.066Z,3.40
2018-01-04T03:39:16.214Z,2.03
2018-01-04T03:44:49.283Z,2.10
2018-01-04T03:47:22.445Z,2.43
2018-01-04T03:49:55.825Z,2.60
2018-01-04T03:52:29.600Z,2.53
2018-01-04T03:55:02.916Z,2.10
2018-01-04T04:00:31.577Z,2.03
2018-01-04T04:02:59.325Z,2.50
2018-01-04T04:05:32.634Z,2.70
2018-01-04T04:08:05.922Z,2.37
2018-01-04T04:10:33.509Z,2.50
2018-01-04T04:13:01.103Z,2.33
2018-01-04T04:15:30.347Z,1.57
2018-01-04T04:17:57.928Z,1.70
2018-01-04T04:20:25.494Z,2.17
2018-01-04T04:22:53.078Z,2.00
2018-01-04T04:25:20.646Z,1.50
2018-01-04T04:27:48.195Z,2.30
2018-01-04T04:30:15.834Z,2.10
2018-01-04T04:32:43.462Z,1.77
2018-01-04T04:35:11.076Z,1.50
2018-01-04T04:37:38.738Z,2.20
2018-01-04T04:40:06.366Z,1.90
2018-01-04T04:42:34.111Z,2.60
2018-01-04T04:45:01.685Z,1.90
2018-01-04T04:47:29.277Z,2.30
2018-01-04T04:49:56.868Z,2.30
2018-01-04T04:52:24.470Z,2.70
2018-01-04T04:54:52.146Z,1.90
2018-01-04T04:57:21.214Z,2.60
2018-01-04T04:59:48.821Z,2.13
2018-01-04T05:02:16.397Z,2.47
2018-01-04T05:04:44.807Z,2.43
2018-01-04T05:07:12.587Z,1.90
2018-01-04T05:09:40.347Z,2.70
2018-01-04T05:12:07.911Z,3.57
2018-01-04T05:14:35.566Z,2.57
2018-01-04T05:17:03.166Z,2.80
2018-01-04T05:19:30.742Z,2.53
2018-01-04T05:21:58.344Z,2.00
2018-01-04T05:24:26.092Z,2.07
2018-01-04T05:26:53.691Z,2.47
2018-01-04T05:29:21.287Z,2.57
2018-01-04T05:31:49.615Z,2.53
2018-01-04T05:34:17.251Z,2.80
2018-01-04T05:36:44.801Z,3.33
2018-01-04T05:39:12.417Z,2.77
2018-01-04T05:41:40.056Z,3.00
2018-01-04T05:44:07.634Z,3.70
2018-01-04T05:46:35.242Z,3.63
2018-01-04T05:49:03.072Z,3.10
2018-01-04T05:51:33.054Z,3.53
2018-01-04T05:54:00.664Z,4.10
2018-01-04T05:56:28.222Z,3.57
2018-01-04T05:58:56.046Z,4.57
2018-01-04T06:01:24.221Z,5.00
2018-01-04T06:03:51.912Z,3.83
2018-01-04T06:06:20.289Z,4.03
2018-01-04T06:08:47.939Z,4.00
2018-01-04T06:11:15.540Z,3.43
2018-01-04T06:13:43.860Z,3.50
2018-01-04T06:16:11.434Z,3.27
2018-01-04T06:18:39.057Z,4.17
2018-01-04T06:23:41.345Z,3.13
2018-01-04T06:26:09.658Z,4.20
2018-01-04T06:28:37.314Z,3.07
2018-01-04T06:31:05.026Z,2.90
2018-01-04T06:33:33.373Z,5.83
2018-01-04T06:36:01.069Z,3.77
2018-01-04T06:38:28.683Z,3.97
2018-01-04T06:40:56.411Z,4.30
2018-01-04T06:43:24.019Z,2.80
2018-01-04T06:48:25.572Z,3.67
2018-01-04T06:50:53.226Z,3.73
2018-01-04T06:53:20.811Z,3.07
2018-01-04T06:55:48.481Z,3.20
2018-01-04T06:58:16.126Z,3.53
2018-01-04T07:00:43.770Z,4.40
2018-01-04T07:03:11.925Z,3.77
2018-01-04T07:05:39.505Z,3.60
2018-01-04T07:08:08.090Z,4.37
2018-01-04T07:10:35.806Z,3.40
2018-01-04T07:13:03.451Z,4.27
2018-01-04T07:15:31.131Z,3.50
2018-01-04T07:17:58.731Z,4.00
2018-01-04T07:20:26.282Z,4.33
2018-01-04T07:22:54.179Z,3.50
2018-01-04T07:25:22.309Z,3.43
2018-01-04T07:27:51.232Z,3.50
2018-01-04T07:30:18.823Z,3.03
2018-01-04T07:32:47.370Z,3.50
2018-01-04T07:35:15.235Z,4.07
2018-01-04T07:37:43.641Z,4.33
2018-01-04T07:40:11.285Z,6.47
2018-01-04T07:42:38.854Z,5.30
2018-01-04T07:45:06.629Z,6.40
2018-01-04T07:47:34.362Z,6.57
2018-01-04T07:50:01.975Z,3.83
2018-01-04T07:52:29.534Z,3.90
2018-01-04T07:54:58.163Z,5.80
2018-01-04T07:57:25.772Z,5.67
2018-01-04T07:59:53.364Z,3.47
2018-01-04T08:02:20.981Z,4.00
2018-01-04T08:04:49.328Z,5.10
2018-01-04T08:07:17.431Z,5.10
2018-01-04T08:09:45.073Z,3.33
2018-01-04T08:12:12.853Z,3.50
2018-01-04T08:14:40.795Z,4.07
2018-01-04T08:17:09.202Z,2.80
2018-01-04T08:19:36.777Z,3.17
2018-01-04T08:22:04.466Z,2.83
2018-01-04T08:24:32.851Z,3.10
2018-01-04T08:27:00.474Z,3.10
2018-01-04T08:29:28.280Z,3.17
2018-01-04T08:31:55.973Z,3.10
2018-01-04T08:34:23.586Z,4.17
2018-01-04T08:36:51.273Z,3.63
2018-01-04T08:39:18.851Z,3.27
2018-01-04T08:41:46.472Z,3.57
2018-01-04T08:44:14.077Z,4.13
2018-01-04T08:46:41.732Z,3.67
2018-01-04T08:49:09.311Z,3.50
2018-01-04T08:51:36.910Z,3.50
2018-01-04T08:54:04.513Z,4.43
2018-01-04T08:56:32.958Z,3.67
2018-01-04T08:59:00.513Z,4.10
2018-01-04T09:01:28.152Z,3.37
2018-01-04T09:03:55.747Z,4.50
2018-01-04T09:06:23.357Z,4.50
2018-01-04T09:08:51.570Z,4.47
2018-01-04T09:11:19.178Z,4.63
2018-01-04T09:13:46.768Z,3.87
2018-01-04T09:16:15.255Z,3.90
2018-01-04T09:18:42.828Z,3.93
2018-01-04T09:21:10.611Z,3.87
2018-01-04T09:23:38.204Z,4.03
2018-01-04T09:26:06.118Z,4.20
2018-01-04T09:28:33.943Z,4.53
2018-01-04T09:31:02.337Z,2.93
2018-01-04T09:33:29.919Z,4.00
2018-01-04T09:35:57.519Z,3.20
2018-01-04T09:38:25.124Z,3.47
2018-01-04T09:40:52.934Z,4.53
2018-01-04T09:43:21.459Z,3.70
2018-01-04T09:45:49.158Z,3.23
2018-01-04T09:48:16.774Z,4.40
2018-01-04T09:50:44.560Z,4.30
2018-01-04T09:53:12.140Z,4.17
2018-01-04T09:55:39.785Z,6.73
2018-01-04T09:58:07.336Z,3.30
2018-01-04T10:00:34.929Z,3.27
2018-01-04T10:03:02.744Z,2.97
2018-01-04T10:05:31.090Z,3.67
2018-01-04T10:07:58.731Z,3.50
2018-01-04T10:10:26.311Z,4.70
2018-01-04T10:12:56.083Z,3.77
2018-01-04T10:15:23.729Z,2.97
2018-01-04T10:17:51.289Z,4.00
2018-01-04T10:20:19.697Z,4.37
2018-01-04T10:22:47.461Z,4.50
2018-01-04T10:25:15.113Z,3.43
2018-01-04T10:27:42.681Z,4.27
2018-01-04T10:30:10.283Z,4.77
2018-01-04T10:32:37.951Z,5.40
2018-01-04T10:35:05.578Z,6.63
2018-01-04T10:37:33.198Z,5.90
2018-01-04T10:40:01.987Z,5.40
2018-01-04T10:42:29.646Z,4.50
2018-01-04T10:44:58.019Z,4.63
2018-01-04T10:47:25.708Z,4.30
2018-01-04T10:49:53.291Z,4.73
2018-01-04T10:52:20.891Z,4.70
2018-01-04T10:54:49.188Z,3.90
2018-01-04T10:57:16.766Z,4.97
2018-01-04T10:59:44.342Z,4.47
2018-01-04T11:02:11.964Z,3.67
2018-01-04T11:04:39.597Z,3.20
2018-01-04T11:07:07.157Z,4.13
2018-01-04T11:09:34.768Z,3.90
2018-01-04T11:12:02.413Z,3.90
2018-01-04T11:14:30.083Z,5.03
2018-01-04T11:16:57.698Z,5.43
2018-01-04T11:19:25.346Z,4.60
2018-01-04T11:21:52.948Z,3.90
2018-01-04T11:24:20.795Z,5.90
2018-01-04T11:26:48.586Z,5.53
2018-01-04T11:29:16.161Z,5.50
2018-01-04T11:31:44.541Z,3.93
2018-01-04T11:34:12.106Z,5.17
2018-01-04T11:36:39.848Z,6.00
2018-01-04T11:39:07.455Z,4.77
2018-01-04T11:41:35.030Z,5.20
2018-01-04T11:44:03.253Z,4.17
2018-01-04T11:46:31.620Z,6.20
2018-01-04T11:48:59.274Z,4.33
2018-01-04T11:51:26.842Z,5.60
2018-01-04T11:53:54.491Z,5.13
2018-01-04T11:56:22.843Z,6.13
2018-01-04T11:58:50.453Z,4.43
2018-01-04T12:01:18.115Z,5.20
2018-01-04T12:03:45.783Z,5.13
2018-01-04T12:06:13.484Z,5.40
2018-01-04T12:08:41.103Z,4.43
2018-01-04T12:11:09.457Z,5.40
2018-01-04T12:13:37.120Z,5.10
2018-01-04T12:16:05.449Z,5.07
2018-01-04T12:18:33.285Z,5.10
2018-01-04T12:21:00.947Z,4.67
2018-01-04T12:23:29.305Z,5.97
2018-01-04T12:25:57.039Z,8.20
2018-01-04T12:28:24.703Z,6.00
2018-01-04T12:30:52.634Z,5.50
2018-01-04T12:33:20.256Z,5.83
2018-01-04T12:35:48.606Z,6.10
2018-01-04T12:38:16.205Z,5.03
2018-01-04T12:40:43.810Z,6.23
2018-01-04T12:43:12.264Z,5.27
2018-01-04T12:45:39.859Z,6.83
2018-01-04T12:48:07.433Z,7.20
2018-01-04T12:50:35.036Z,14.83
2018-01-04T12:53:02.645Z,7.97
2018-01-04T12:55:30.362Z,6.90
2018-01-04T12:57:58.799Z,6.83
2018-01-04T13:00:26.429Z,11.77
2018-01-04T13:02:54.793Z,7.00
2018-01-04T13:05:22.437Z,8.10
2018-01-04T13:07:50.896Z,7.47
2018-01-04T13:10:18.508Z,9.47
2018-01-04T13:12:46.116Z,6.03
2018-01-04T13:15:13.703Z,7.80
2018-01-04T13:17:41.358Z,6.83
2018-01-04T13:20:09.129Z,9.83
2018-01-04T13:22:37.629Z,7.07
2018-01-04T13:25:05.269Z,5.70
2018-01-04T13:27:32.830Z,5.00
2018-01-04T13:30:00.430Z,5.57
2018-01-04T13:32:28.054Z,5.53
2018-01-04T13:34:55.684Z,5.73
2018-01-04T13:37:23.506Z,5.37
2018-01-04T13:39:51.090Z,5.90
2018-01-04T13:42:18.673Z,5.50
2018-01-04T13:44:47.101Z,5.53
2018-01-04T13:47:14.721Z,5.20
2018-01-04T13:49:42.322Z,6.20
2018-01-04T13:52:10.893Z,6.03
2018-01-04T13:54:38.524Z,12.90
2018-01-04T13:57:06.155Z,8.17
2018-01-04T13:59:34.493Z,6.13
2018-01-04T14:02:02.170Z,5.80
2018-01-04T14:04:29.802Z,6.00
2018-01-04T14:06:57.440Z,5.30
2018-01-04T14:09:25.091Z,6.20
2018-01-04T14:11:52.664Z,5.80
2018-01-04T14:14:20.467Z,6.50
2018-01-04T14:16:48.666Z,6.60
2018-01-04T14:19:16.267Z,6.00
2018-01-04T14:21:43.888Z,5.50
2018-01-04T14:24:11.475Z,5.43
2018-01-04T14:26:39.079Z,6.63
2018-01-04T14:29:06.813Z,5.80
2018-01-04T14:31:34.392Z,6.27
2018-01-04T14:34:02.361Z,6.47
2018-01-04T14:36:30.343Z,7.10
2018-01-04T14:38:58.136Z,5.70
2018-01-04T14:41:26.056Z,7.50
2018-01-04T14:43:53.629Z,6.30
2018-01-04T14:46:21.278Z,7.07
2018-01-04T14:48:48.844Z,5.57
2018-01-04T14:51:16.422Z,5.83
2018-01-04T14:53:44.297Z,6.37
2018-01-04T14:56:11.897Z,6.67
2018-01-04T14:58:39.460Z,5.10
2018-01-04T15:01:07.155Z,7.97
2018-01-04T15:03:34.919Z,5.40
2018-01-04T15:06:02.576Z,4.60
2018-01-04T15:08:30.322Z,4.43
2018-01-04T15:10:57.939Z,5.50
2018-01-04T15:13:25.686Z,5.77
2018-01-04T15:15:54.020Z,5.70
2018-01-04T15:18:22.059Z,5.10
2018-01-04T15:20:50.404Z,4.37
2018-01-04T15:23:17.997Z,4.70
2018-01-04T15:25:45.714Z,4.77
2018-01-04T15:28:13.296Z,4.40
2018-01-04T15:30:40.921Z,5.60
2018-01-04T15:33:08.614Z,4.57
2018-01-04T15:35:38.164Z,5.23
2018-01-04T15:38:06.506Z,7.23
2018-01-04T15:40:34.168Z,5.30
2018-01-04T15:43:02.252Z,6.63
2018-01-04T15:45:30.479Z,8.53
2018-01-04T15:47:58.780Z,13.23
2018-01-04T15:50:27.109Z,5.67
2018-01-04T15:52:55.452Z,5.40
2018-01-04T15:55:23.932Z,9.50
2018-01-04T15:57:52.036Z,5.30
2018-01-04T16:00:20.173Z,5.80
2018-01-04T16:02:47.776Z,9.07
2018-01-04T16:05:16.149Z,10.80
2018-01-04T16:07:43.814Z,6.27
2018-01-04T16:10:11.427Z,5.80
2018-01-04T16:12:39.022Z,5.27
2018-01-04T16:15:06.645Z,6.40
2018-01-04T16:17:34.302Z,6.37
2018-01-04T16:20:01.869Z,6.30
2018-01-04T16:22:30.093Z,7.47
2018-01-04T16:24:58.860Z,6.03
2018-01-04T16:27:26.516Z,7.03
2018-01-04T16:29:58.709Z,8.87
2018-01-04T16:32:27.540Z,6.63
2018-01-04T16:34:55.557Z,6.80
2018-01-04T16:37:25.532Z,8.00
2018-01-04T16:39:55.143Z,6.70
2018-01-04T16:42:22.805Z,6.40
2018-01-04T16:44:54.235Z,7.57
2018-01-04T16:47:21.990Z,7.17
2018-01-04T16:49:49.584Z,5.20
2018-01-04T16:52:17.247Z,5.60
2018-01-04T16:54:44.917Z,6.83
2018-01-04T16:57:12.706Z,4.40
2018-01-04T16:59:40.436Z,5.90
2018-01-04T17:02:08.031Z,5.23
2018-01-04T17:04:35.788Z,6.00
2018-01-04T17:07:03.384Z,6.20
2018-01-04T17:09:32.014Z,8.50
2018-01-04T17:11:59.663Z,9.43
2018-01-04T17:14:36.656Z,9.40
2018-01-04T17:17:04.404Z,6.03
2018-01-04T17:19:32.889Z,6.60
2018-01-04T17:22:00.487Z,5.80
2018-01-04T17:24:35.390Z,6.23
2018-01-04T17:27:03.181Z,5.13
2018-01-04T17:29:31.145Z,6.67
2018-01-04T17:32:09.290Z,5.40
2018-01-04T17:34:36.862Z,5.37
2018-01-04T17:37:07.510Z,8.63
2018-01-04T17:39:40.756Z,5.07
2018-01-04T17:42:09.042Z,4.57
2018-01-04T17:44:36.762Z,6.57
2018-01-04T17:47:04.380Z,5.37
2018-01-04T17:49:31.954Z,6.70
2018-01-04T17:52:00.295Z,5.63
2018-01-04T17:54:27.976Z,4.57
2018-01-04T17:56:55.528Z,5.47
2018-01-04T17:59:23.098Z,4.97
2018-01-04T18:01:51.527Z,5.60
2018-01-04T18:04:20.009Z,5.93
2018-01-04T18:06:47.579Z,6.00
2018-01-04T18:09:15.157Z,5.00
2018-01-04T18:11:42.904Z,5.70
2018-01-04T18:14:10.489Z,5.40
2018-01-04T18:16:38.143Z,6.77
2018-01-04T18:19:05.715Z,5.07
2018-01-04T18:21:34.064Z,5.60
2018-01-04T18:24:01.620Z,5.30
2018-01-04T18:26:29.171Z,5.00
2018-01-04T18:28:57.437Z,6.17
2018-01-04T18:31:25.192Z,5.20
2018-01-04T18:33:52.750Z,4.93
2018-01-04T18:36:20.857Z,5.80
2018-01-04T18:38:48.545Z,5.77
2018-01-04T18:41:16.334Z,4.33
2018-01-04T18:43:43.946Z,4.50
2018-01-04T18:46:11.515Z,4.57
2018-01-04T18:48:39.366Z,5.03
2018-01-04T18:51:07.403Z,4.57
2018-01-04T18:53:35.012Z,5.83
2018-01-04T18:56:02.729Z,4.63
2018-01-04T18:58:30.483Z,4.93
2018-01-04T19:00:58.258Z,4.90
2018-01-04T19:03:26.053Z,4.90
2018-01-04T19:05:53.925Z,5.73
2018-01-04T19:08:21.506Z,5.77
2018-01-04T19:10:49.079Z,4.93
2018-01-04T19:13:16.837Z,4.50
2018-01-04T19:15:44.473Z,4.20
2018-01-04T19:18:12.307Z,4.83
2018-01-04T19:20:39.917Z,4.63
2018-01-04T19:23:09.836Z,4.07
2018-01-04T19:25:38.257Z,4.33
2018-01-04T19:28:05.810Z,4.53
2018-01-04T19:30:33.533Z,5.90
2018-01-04T19:33:01.356Z,5.43
2018-01-04T19:35:29.336Z,4.43
2018-01-04T19:37:56.899Z,3.90
2018-01-04T19:40:24.899Z,4.33
2018-01-04T19:42:52.528Z,4.03
2018-01-04T19:45:20.411Z,4.43
2018-01-04T19:47:48.416Z,4.20
2018-01-04T19:50:16.023Z,4.50
2018-01-04T19:52:43.584Z,4.60
2018-01-04T19:55:11.183Z,4.20
2018-01-04T19:57:38.968Z,5.57
2018-01-04T20:00:06.574Z,6.10
2018-01-04T20:02:34.167Z,4.17
2018-01-04T20:05:01.827Z,5.90
2018-01-04T20:07:30.027Z,5.17
2018-01-04T20:09:57.587Z,4.77
2018-01-04T20:12:25.140Z,4.90
2018-01-04T20:14:53.510Z,4.03
2018-01-04T20:17:21.291Z,3.90
2018-01-04T20:19:50.319Z,3.60
2018-01-04T20:22:18.601Z,4.20
2018-01-04T20:24:46.961Z,4.07
2018-01-04T20:27:14.787Z,3.83
2018-01-04T20:29:42.358Z,4.43
2018-01-04T20:32:09.965Z,4.20
2018-01-04T20:34:38.880Z,4.20
2018-01-04T20:37:06.470Z,5.47
2018-01-04T20:39:34.548Z,8.90
2018-01-04T20:42:02.316Z,3.70
2018-01-04T20:44:31.542Z,3.47
2018-01-04T20:47:00.638Z,3.50
2018-01-04T20:49:29.573Z,3.23
2018-01-04T20:51:57.259Z,4.57
2018-01-04T20:54:25.030Z,3.67
2018-01-04T20:56:52.578Z,3.83
2018-01-04T20:59:20.180Z,3.87
2018-01-04T21:01:47.799Z,3.87
2018-01-04T21:04:15.346Z,4.07
2018-01-04T21:06:43.004Z,3.67
2018-01-04T21:09:10.832Z,3.83
2018-01-04T21:11:38.378Z,3.70
2018-01-04T21:14:06.198Z,4.10
2018-01-04T21:16:34.670Z,3.93
2018-01-04T21:19:02.256Z,4.43
2018-01-04T21:21:29.832Z,3.60
2018-01-04T21:23:58.401Z,3.60
2018-01-04T21:26:26.852Z,4.50
2018-01-04T21:28:54.442Z,4.63
2018-01-04T21:31:22.559Z,5.37
2018-01-04T21:33:50.278Z,3.90
2018-01-04T21:36:17.819Z,4.10
2018-01-04T21:38:45.402Z,4.90
2018-01-04T21:41:12.958Z,4.00
2018-01-04T21:43:40.510Z,4.60
2018-01-04T21:46:08.155Z,4.67
2018-01-04T21:48:36.392Z,4.10
2018-01-04T21:51:04.746Z,3.70
2018-01-04T21:53:32.688Z,4.47
2018-01-04T21:56:00.444Z,4.00
2018-01-04T21:58:28.010Z,4.77
2018-01-04T22:00:56.348Z,4.67
2018-01-04T22:03:24.081Z,3.70
2018-01-04T22:05:51.635Z,4.03
2018-01-04T22:08:19.994Z,4.93
2018-01-04T22:10:47.596Z,4.60
2018-01-04T22:13:15.314Z,4.03
2018-01-04T22:15:42.881Z,4.27
2018-01-04T22:18:10.479Z,4.20
2018-01-04T22:20:38.037Z,4.47
2018-01-04T22:23:06.008Z,4.60
2018-01-04T22:25:33.570Z,3.97
2018-01-04T22:28:01.387Z,4.50
2018-01-04T22:30:28.941Z,4.80
2018-01-04T22:32:56.689Z,4.60
2018-01-04T22:35:24.237Z,5.27
2018-01-04T22:37:52.651Z,4.60
2018-01-04T22:40:27.448Z,6.47
2018-01-04T22:43:00.062Z,5.70
2018-01-04T22:45:31.492Z,6.23
2018-01-04T22:48:04.332Z,6.17
2018-01-04T22:50:35.271Z,4.90
2018-01-04T22:53:03.522Z,4.60
2018-01-04T22:55:42.356Z,4.40
2018-01-04T22:58:20.349Z,6.20
2018-01-04T23:00:51.515Z,5.63
2018-01-04T23:03:21.736Z,7.00
2018-01-04T23:05:51.327Z,5.00
2018-01-04T23:08:22.507Z,6.27
2018-01-04T23:10:51.123Z,5.37
2018-01-04T23:13:21.306Z,6.60
2018-01-04T23:15:57.764Z,8.90
2018-01-04T23:18:27.210Z,7.67
2018-01-04T23:20:58.479Z,6.80
2018-01-04T23:23:32.301Z,6.73
2018-01-04T23:26:01.346Z,5.73
2018-01-04T23:28:36.983Z,5.63
2018-01-04T23:31:05.293Z,4.67
2018-01-04T23:33:36.708Z,5.67
2018-01-04T23:36:07.080Z,5.77
2018-01-04T23:38:40.359Z,6.67
2018-01-04T23:41:11.150Z,5.90
2018-01-04T23:43:39.927Z,4.53
2018-01-04T23:46:09.444Z,4.90
2018-01-04T23:48:37.103Z,3.87
2018-01-04T23:51:04.841Z,4.00
2018-01-04T23:53:33.668Z,3.80
2018-01-04T23:56:02.673Z,3.40
2018-01-04T23:58:30.270Z,3.93
